Time;durP1;ratioP1;P1;durP2;ratioP2;P2;SDS_P1;SDS_P2;PMS_P1;PMS_P2;Temp;Humidity;BMP_temperature;BMP_pressure;BME280_temperature;BME280_humidity;BME280_pressure;Samples;Min_cycle;Max_cycle;Signal;HPM_P1;HPM_P2
2021/09/29 00:03:44;;;;;;;7.03;3.50;;;;;;;14.85;71.44;100397.94;10322389;28;20073;-63
2021/09/29 00:08:45;;;;;;;5.68;3.75;;;;;;;14.87;71.64;100393.28;10326319;28;20495;-62
2021/09/29 00:13:46;;;;;;;10.82;4.38;;;;;;;14.88;71.70;100394.09;10328210;28;20100;-62
2021/09/29 00:18:48;;;;;;;6.05;3.90;;;;;;;14.88;71.49;100399.47;10324812;28;20049;-62
2021/09/29 00:23:49;;;;;;;4.93;3.70;;;;;;;14.84;71.34;100388.22;10327921;28;20093;-62
2021/09/29 00:28:51;;;;;;;5.57;4.40;;;;;;;14.78;71.26;100389.63;10341822;28;20057;-63
2021/09/29 00:39:30;;;;;;;4.75;3.67;;;;;;;14.82;71.11;100366.91;10285803;28;20222;-62
2021/09/29 00:44:32;;;;;;;7.82;5.18;;;;;;;14.73;71.24;100357.09;10321634;28;20120;-62
2021/09/29 00:49:33;;;;;;;7.40;4.32;;;;;;;14.67;71.32;100355.84;10320185;28;20227;-62
2021/09/29 00:54:35;;;;;;;5.82;3.85;;;;;;;14.58;71.68;100353.19;10320356;28;20643;-62
2021/09/29 00:59:37;;;;;;;6.22;4.32;;;;;;;14.61;71.54;100359.13;10325674;28;20050;-63
2021/09/29 01:04:39;;;;;;;5.95;4.05;;;;;;;14.59;71.65;100346.81;10326047;28;20127;-62
2021/09/29 01:09:51;;;;;;;6.10;5.38;;;;;;;14.61;71.81;100345.72;10327021;28;20053;-62
2021/09/29 01:15:06;;;;;;;6.43;5.32;;;;;;;14.65;71.39;100331.03;10294358;28;20121;-62
2021/09/29 01:20:19;;;;;;;6.60;6.00;;;;;;;14.72;71.24;100325.91;10324115;28;20054;-62
2021/09/29 01:25:39;;;;;;;5.18;4.50;;;;;;;14.64;71.01;100320.47;10326094;28;20495;-62
2021/09/29 01:30:40;;;;;;;7.47;4.90;;;;;;;14.62;70.91;100323.31;10322749;28;20124;-62
2021/09/29 01:35:42;;;;;;;8.07;6.60;;;;;;;14.61;70.94;100318.09;10308293;28;20050;-62
2021/09/29 01:40:44;;;;;;;6.30;5.57;;;;;;;14.65;70.96;100308.75;10316197;28;22424;-62
2021/09/29 01:45:47;;;;;;;8.00;6.88;;;;;;;14.68;70.70;100313.81;10308443;28;20129;-62
2021/09/29 01:50:53;;;;;;;6.60;5.63;;;;;;;14.69;70.67;100304.78;10325935;28;20746;-62
2021/09/29 01:55:55;;;;;;;6.97;6.28;;;;;;;14.74;70.65;100302.53;10324832;28;20142;-62
2021/09/29 02:00:57;;;;;;;7.47;6.32;;;;;;;14.74;70.52;100293.63;10326237;28;20125;-63
2021/09/29 02:05:59;;;;;;;9.15;7.45;;;;;;;14.77;70.60;100291.50;10329900;28;20061;-62
2021/09/29 02:11:01;;;;;;;6.63;5.85;;;;;;;14.78;70.46;100290.50;10350999;28;21319;-62
2021/09/29 02:16:02;;;;;;;8.57;6.53;;;;;;;14.79;70.48;100284.16;10327816;28;20066;-62
2021/09/29 02:21:04;;;;;;;5.90;5.22;;;;;;;14.85;70.35;100294.25;10327462;28;20074;-62
2021/09/29 02:26:05;;;;;;;5.28;4.78;;;;;;;14.88;70.24;100292.25;10330410;28;20133;-63
2021/09/29 02:31:07;;;;;;;6.18;4.35;;;;;;;14.89;69.93;100288.59;10331207;28;20137;-61
2021/09/29 02:36:10;;;;;;;7.07;5.32;;;;;;;14.89;69.78;100293.97;10330789;28;20813;-62
2021/09/29 02:41:13;;;;;;;4.90;4.40;;;;;;;14.87;69.91;100302.16;10329521;28;20127;-62
2021/09/29 02:46:14;;;;;;;4.80;4.38;;;;;;;14.91;69.79;100292.00;10329072;28;20650;-62
2021/09/29 02:51:16;;;;;;;4.90;4.28;;;;;;;14.90;69.80;100288.44;10330500;28;20058;-62
2021/09/29 02:56:17;;;;;;;7.55;4.47;;;;;;;14.85;69.62;100283.53;10327534;28;20065;-64
2021/09/29 03:01:19;;;;;;;7.63;4.25;;;;;;;14.80;70.30;100296.56;10325819;28;20074;-62
2021/09/29 03:06:21;;;;;;;6.40;4.35;;;;;;;14.88;70.04;100302.97;10325968;28;20153;-62
2021/09/29 03:11:22;;;;;;;4.20;3.50;;;;;;;14.83;69.91;100308.78;10327213;28;20141;-62
2021/09/29 03:16:24;;;;;;;5.00;4.32;;;;;;;14.79;70.10;100297.53;10323444;28;20172;-61
2021/09/29 03:21:25;;;;;;;5.47;3.90;;;;;;;14.74;70.29;100310.56;10326490;28;20038;-62
2021/09/29 03:26:27;;;;;;;5.35;4.50;;;;;;;14.76;70.54;100305.06;10324605;28;20444;-62
2021/09/29 03:31:28;;;;;;;5.78;4.03;;;;;;;14.76;70.49;100300.53;10322108;28;20129;-62
2021/09/29 03:36:30;;;;;;;5.28;3.70;;;;;;;14.74;70.86;100301.66;10321925;28;20124;-63
2021/09/29 03:41:32;;;;;;;6.10;4.20;;;;;;;14.67;71.12;100304.09;10337618;28;20141;-62
2021/09/29 03:46:33;;;;;;;5.18;4.68;;;;;;;14.70;71.21;100305.63;10323867;28;20050;-61
2021/09/29 03:51:35;;;;;;;5.60;3.92;;;;;;;14.70;71.51;100301.13;10338063;28;20057;-62
2021/09/29 03:56:36;;;;;;;6.55;4.70;;;;;;;14.63;71.61;100297.34;10331094;28;20082;-62
2021/09/29 04:01:38;;;;;;;7.60;4.35;;;;;;;14.63;72.05;100297.34;10321350;28;20073;-63
2021/09/29 04:06:40;;;;;;;8.80;5.45;;;;;;;14.60;72.40;100284.22;10325222;28;20080;-61
2021/09/29 04:11:41;;;;;;;4.80;4.32;;;;;;;14.61;72.25;100283.28;10329790;28;20078;-61
2021/09/29 04:16:43;;;;;;;7.53;4.85;;;;;;;14.58;72.49;100286.22;10326504;28;20049;-62
2021/09/29 04:21:45;;;;;;;9.13;5.30;;;;;;;14.57;72.56;100289.88;10319142;28;20058;-63
2021/09/29 04:26:46;;;;;;;6.75;4.30;;;;;;;14.49;72.93;100296.81;10323381;28;20042;-62
2021/09/29 04:31:48;;;;;;;4.53;3.75;;;;;;;14.53;73.65;100307.22;10343334;28;20406;-62
2021/09/29 04:36:49;;;;;;;8.70;5.25;;;;;;;14.46;72.31;100307.00;10341071;28;20042;-62
2021/09/29 04:41:51;;;;;;;6.65;4.30;;;;;;;14.39;72.74;100304.03;10343855;28;20050;-62
2021/09/29 04:46:52;;;;;;;5.03;4.07;;;;;;;14.37;73.31;100305.19;10343464;28;21317;-62
2021/09/29 04:51:54;;;;;;;6.10;4.35;;;;;;;14.33;73.04;100332.25;10327440;28;20039;-63
2021/09/29 04:56:55;;;;;;;3.90;3.60;;;;;;;14.25;73.89;100325.94;10316136;28;20125;-61
2021/09/29 05:01:57;;;;;;;6.45;4.65;;;;;;;14.10;74.12;100326.41;10326227;28;20264;-62
2021/09/29 05:07:00;;;;;;;5.53;4.10;;;;;;;14.11;75.21;100329.91;10324946;28;20134;-62
2021/09/29 05:12:07;;;;;;;5.22;4.70;;;;;;;14.00;75.22;100322.91;10331187;28;20161;-62
2021/09/29 05:17:08;;;;;;;6.78;4.68;;;;;;;14.06;75.39;100324.16;10331626;28;20049;-69
2021/09/29 05:22:10;;;;;;;6.47;4.53;;;;;;;14.05;74.83;100334.03;10324326;28;20046;-64
2021/09/29 05:27:12;;;;;;;6.00;5.03;;;;;;;13.94;74.90;100339.53;10315800;28;20125;-62
2021/09/29 05:32:13;;;;;;;6.93;5.25;;;;;;;13.85;75.49;100346.59;10316484;28;20100;-62
2021/09/29 05:37:15;;;;;;;5.85;4.90;;;;;;;13.79;75.51;100347.16;10301428;28;20049;-68
2021/09/29 05:42:16;;;;;;;8.45;5.22;;;;;;;13.69;76.09;100352.53;10300965;28;20046;-62
2021/09/29 05:47:18;;;;;;;8.57;5.05;;;;;;;13.65;76.13;100343.09;10303142;28;20504;-62
2021/09/29 05:52:19;;;;;;;6.05;4.85;;;;;;;13.63;76.58;100339.72;10304436;28;20058;-63
2021/09/29 05:57:21;;;;;;;6.85;5.63;;;;;;;13.62;76.31;100348.72;10320970;28;20543;-62
2021/09/29 06:02:22;;;;;;;8.13;5.60;;;;;;;13.75;76.46;100351.97;10337339;28;20080;-63
2021/09/29 06:07:24;;;;;;;7.00;5.13;;;;;;;13.62;76.76;100343.38;10329745;28;20705;-61
2021/09/29 06:12:25;;;;;;;9.88;5.40;;;;;;;13.66;77.28;100341.25;10323181;28;20644;-63
2021/09/29 06:17:36;;;;;;;7.57;5.32;;;;;;;13.84;77.17;100338.69;10323280;28;20042;-62
2021/09/29 06:22:38;;;;;;;10.85;5.40;;;;;;;13.91;75.89;100343.34;10322379;28;20077;-62
2021/09/29 06:27:40;;;;;;;6.45;5.65;;;;;;;13.94;76.01;100352.91;10320355;28;20053;-62
2021/09/29 06:32:41;;;;;;;6.63;5.57;;;;;;;13.82;76.43;100346.03;10318738;28;20508;-62
2021/09/29 06:37:43;;;;;;;7.35;5.43;;;;;;;13.80;77.02;100354.22;10318653;28;20270;-62
2021/09/29 06:42:46;;;;;;;8.05;5.60;;;;;;;13.68;77.52;100366.88;10326633;28;20149;-62
2021/09/29 06:47:49;;;;;;;8.65;5.97;;;;;;;13.54;77.71;100351.25;10326783;28;20653;-63
2021/09/29 06:52:50;;;;;;;9.75;6.40;;;;;;;13.72;77.18;100346.03;10324201;28;20054;-62
2021/09/29 06:57:52;;;;;;;6.80;5.45;;;;;;;13.97;76.41;100344.59;10315358;28;20610;-63
2021/09/29 07:02:53;;;;;;;11.27;8.15;;;;;;;14.13;75.67;100346.69;10320557;28;20137;-62
2021/09/29 07:07:56;;;;;;;9.50;5.88;;;;;;;14.29;75.66;100340.72;10319426;28;20057;-63
2021/09/29 07:12:58;;;;;;;8.82;5.60;;;;;;;14.70;74.72;100351.16;10317707;28;20062;-63
2021/09/29 07:18:00;;;;;;;7.60;5.40;;;;;;;14.78;73.01;100360.16;10326816;28;20046;-62
2021/09/29 07:23:05;;;;;;;7.13;5.18;;;;;;;14.91;72.51;100357.16;10325971;28;20141;-63
2021/09/29 07:28:06;;;;;;;8.65;6.82;;;;;;;15.06;71.68;100360.16;10326936;28;20133;-64
2021/09/29 07:33:08;;;;;;;6.45;5.30;;;;;;;15.55;69.97;100354.44;10324970;28;20057;-68
2021/09/29 07:38:11;;;;;;;7.78;5.22;;;;;;;15.64;69.40;100347.31;10326216;28;20136;-62
2021/09/29 07:43:12;;;;;;;15.07;6.97;;;;;;;15.42;69.64;100360.22;10323912;28;20106;-63
2021/09/29 07:48:13;;;;;;;6.55;4.95;;;;;;;15.35;69.67;100354.59;10326388;28;20606;-66
2021/09/29 07:53:17;;;;;;;5.28;4.78;;;;;;;15.27;70.12;100351.03;10325110;28;20128;-63
2021/09/29 07:58:20;;;;;;;7.90;4.78;;;;;;;15.29;70.38;100347.16;10286190;28;20141;-62
2021/09/29 08:03:21;;;;;;;6.93;4.30;;;;;;;15.43;69.67;100342.28;10282509;28;20073;-62
2021/09/29 08:08:23;;;;;;;6.25;4.80;;;;;;;15.33;69.22;100339.69;10284640;28;20050;-61
2021/09/29 08:13:24;;;;;;;6.72;4.55;;;;;;;15.49;69.16;100339.84;10285512;28;20120;-63
2021/09/29 08:18:26;;;;;;;12.52;6.03;;;;;;;15.58;68.89;100334.53;10321592;28;20759;-63
2021/09/29 08:23:36;;;;;;;11.00;5.15;;;;;;;15.70;67.99;100341.34;10320551;28;20121;-63
2021/09/29 08:28:54;;;;;;;8.00;3.80;;;;;;;15.97;67.62;100342.25;10319560;28;20125;-63
2021/09/29 08:34:17;;;;;;;6.25;3.78;;;;;;;16.81;63.93;100342.56;10316908;28;20160;-64
2021/09/29 08:39:28;;;;;;;6.05;3.22;;;;;;;16.41;64.30;100345.75;10320303;28;20054;-63
2021/09/29 08:44:54;;;;;;;4.00;3.30;;;;;;;15.93;65.91;100346.25;10320368;28;20137;-64
2021/09/29 09:16:30;;;;;;;5.40;3.22;;;;;;;16.05;66.53;100331.59;10320705;28;20593;-63
2021/09/29 09:21:33;;;;;;;3.73;2.77;;;;;;;16.31;65.86;100330.75;10322496;28;21867;-64
2021/09/29 09:27:08;;;;;;;5.55;3.08;;;;;;;16.84;64.49;100328.81;10320238;28;20355;-64
2021/09/29 09:32:11;;;;;;;2.25;2.05;;;;;;;17.58;60.98;100316.38;10318851;28;20497;-65
2021/09/29 09:37:15;;;;;;;5.97;3.20;;;;;;;17.51;61.24;100326.13;10322736;28;20405;-64
2021/09/29 09:42:16;;;;;;;4.45;2.00;;;;;;;17.41;61.75;100315.50;10321120;28;20129;-64
2021/09/29 09:47:20;;;;;;;4.40;2.33;;;;;;;18.07;59.53;100320.91;10318522;28;20584;-63
2021/09/29 09:52:33;;;;;;;3.25;1.70;;;;;;;19.27;55.27;100289.44;10318635;28;20050;-62
2021/09/29 09:57:36;;;;;;;3.20;1.35;;;;;;;19.97;53.00;100288.38;10320197;28;20061;-63
2021/09/29 10:02:46;;;;;;;8.10;1.43;;;;;;;19.02;54.94;100293.13;10315211;28;20052;-62
2021/09/29 10:07:48;;;;;;;3.60;1.50;;;;;;;18.58;56.22;100290.13;10319644;28;20437;-62
2021/09/29 10:23:28;;;;;;;4.10;1.27;;;;;;;22.00;47.69;100261.50;10305460;28;20199;-63
2021/09/29 10:28:31;;;;;;;1.98;1.15;;;;;;;21.02;48.73;100262.09;10321870;28;20042;-63
2021/09/29 10:33:35;;;;;;;5.70;1.70;;;;;;;22.98;44.83;100247.78;10320108;28;20176;-63
2021/09/29 10:44:21;;;;;;;3.70;1.50;;;;;;;28.05;33.29;100230.38;10316163;28;20184;-64
2021/09/29 10:49:39;;;;;;;2.88;0.70;;;;;;;25.08;37.96;100240.75;10327640;28;20050;-63
2021/09/29 11:32:26;;;;;;;4.13;0.90;;;;;;;18.75;55.61;100226.16;10261317;28;1078896;-63
2021/09/29 12:09:52;;;;;;;2.38;0.82;;;;;;;20.04;56.62;100216.38;10324424;28;20418;-63
2021/09/29 12:14:59;;;;;;;2.22;1.02;;;;;;;19.57;59.11;100204.81;10326965;28;20053;-63
2021/09/29 12:20:40;;;;;;;2.47;0.80;;;;;;;18.51;61.35;100233.38;10330692;28;20050;-63
2021/09/29 12:30:48;;;;;;;2.30;0.90;;;;;;;14.75;75.18;100330.16;10328662;28;20061;-62
2021/09/29 12:35:56;;;;;;;1.70;1.45;;;;;;;14.28;79.40;100325.66;10330749;28;20133;-64
2021/09/29 12:40:58;;;;;;;1.33;0.70;;;;;;;14.34;81.13;100292.94;10342329;28;20038;-63
2021/09/29 12:45:59;;;;;;;2.22;0.77;;;;;;;14.73;79.84;100302.69;10336799;28;20520;-63
2021/09/29 12:51:02;;;;;;;2.63;0.57;;;;;;;14.96;78.63;100306.59;10329072;28;20077;-63
2021/09/29 12:56:15;;;;;;;1.05;0.52;;;;;;;15.16;78.55;100285.88;10325826;28;20279;-62
2021/09/29 13:01:17;;;;;;;1.63;0.43;;;;;;;15.67;75.76;100285.31;10325420;28;20049;-64
2021/09/29 13:06:19;;;;;;;2.00;0.70;;;;;;;17.77;69.68;100288.25;10321270;28;20078;-63
2021/09/29 13:11:20;;;;;;;1.17;0.40;;;;;;;23.70;49.83;100296.16;10317164;28;20049;-60
2021/09/29 13:16:24;;;;;;;0.98;0.55;;;;;;;24.43;48.83;100295.25;10320760;28;20185;-59
2021/09/29 13:21:37;;;;;;;1.75;0.70;;;;;;;27.84;38.67;100303.72;10282272;28;20480;-60
2021/09/29 13:26:57;;;;;;;1.67;0.70;;;;;;;32.46;33.31;100315.53;10322136;28;20551;-65
2021/09/29 13:37:19;;;;;;;1.93;0.30;;;;;;;33.35;27.64;100337.66;10319877;28;20056;-65
2021/09/29 13:42:20;;;;;;;2.83;0.30;;;;;;;30.15;34.82;100359.59;10323451;28;20149;-64
2021/09/29 13:47:26;;;;;;;1.45;0.30;;;;;;;27.06;37.74;100351.97;10321676;28;20380;-62
2021/09/29 13:52:28;;;;;;;1.05;0.20;;;;;;;25.28;40.87;100356.91;10321534;28;20127;-63
2021/09/29 13:57:38;;;;;;;;;;;;;;;22.76;48.10;100361.06;10323129;28;20048;-62
2021/09/29 14:29:17;;;;;;;3.53;1.55;;;;;;;18.96;56.17;100385.56;10326932;28;20060;-61
2021/09/29 14:34:18;;;;;;;1.38;0.40;;;;;;;18.64;55.39;100413.44;10329530;28;20046;-60
2021/09/29 14:39:22;;;;;;;1.67;0.60;;;;;;;18.16;54.63;100419.56;10330734;28;20140;-61
2021/09/29 14:44:23;;;;;;;1.58;0.82;;;;;;;18.48;52.47;100417.00;10327269;28;20149;-62
2021/09/29 14:49:25;;;;;;;0.85;0.20;;;;;;;18.37;54.43;100419.06;10328553;28;20603;-59
2021/09/29 14:54:26;;;;;;;0.22;0.10;;;;;;;18.52;51.53;100424.56;10326716;28;20050;-60
2021/09/29 14:59:28;;;;;;;1.45;0.55;;;;;;;18.38;50.09;100426.09;10287548;28;20201;-60
2021/09/29 15:04:29;;;;;;;1.20;0.40;;;;;;;18.26;51.47;100432.88;10288200;28;20157;-58
2021/09/29 15:09:30;;;;;;;0.93;0.50;;;;;;;18.20;51.02;100449.72;10285529;28;20640;-61
2021/09/29 15:19:40;;;;;;;1.05;0.13;;;;;;;17.70;51.87;100450.63;10288752;28;20061;-59
2021/09/29 15:30:06;;;;;;;0.95;0.20;;;;;;;17.73;52.66;100470.00;10326448;28;20049;-61
2021/09/29 15:51:00;;;;;;;1.42;0.10;;;;;;;17.36;48.21;100505.38;10321271;28;20116;-61
2021/09/29 15:56:16;;;;;;;1.20;0.30;;;;;;;17.16;49.98;100496.69;10321752;28;20499;-61
2021/09/29 16:12:11;;;;;;;2.67;0.55;;;;;;;16.87;53.76;100520.22;10323439;28;20085;-61
2021/09/29 16:33:33;;;;;;;1.67;0.35;;;;;;;16.41;52.34;100571.41;10325729;28;20505;-63
2021/09/29 16:38:35;;;;;;;1.00;0.50;;;;;;;16.35;51.64;100577.41;10317948;28;20116;-63
2021/09/29 16:43:38;;;;;;;1.20;0.30;;;;;;;16.21;53.13;100588.66;10308796;28;20057;-59
2021/09/29 16:48:41;;;;;;;2.08;0.82;;;;;;;16.07;51.63;100590.88;10313764;28;20092;-58
2021/09/29 16:53:57;;;;;;;1.98;0.52;;;;;;;16.08;50.95;100597.09;10319431;28;20050;-60
2021/09/29 16:59:01;;;;;;;1.88;0.60;;;;;;;15.85;51.57;100619.00;10308314;28;20087;-58
2021/09/29 17:04:03;;;;;;;1.20;0.30;;;;;;;15.74;53.25;100624.50;10318196;28;20144;-58
2021/09/29 17:09:05;;;;;;;0.70;0.30;;;;;;;15.87;52.74;100618.84;10320852;28;20115;-63
2021/09/29 17:14:06;;;;;;;2.22;0.43;;;;;;;15.81;54.22;100639.06;10329360;28;20069;-63
2021/09/29 17:19:08;;;;;;;1.50;0.35;;;;;;;15.74;53.78;100649.50;10333614;28;20117;-63
2021/09/29 17:24:29;;;;;;;3.83;1.13;;;;;;;15.71;54.68;100660.53;10336366;28;20454;-62
2021/09/29 17:29:30;;;;;;;1.92;0.57;;;;;;;15.78;53.23;100665.34;10333182;28;20131;-63
2021/09/29 17:40:10;;;;;;;2.07;0.40;;;;;;;15.62;54.28;100677.50;10335791;28;20088;-64
2021/09/29 17:55:52;;;;;;;1.85;0.70;;;;;;;15.50;52.73;100713.56;10333741;28;20112;-65
2021/09/29 18:00:55;;;;;;;2.05;0.40;;;;;;;15.50;54.23;100719.75;10336840;28;20161;-63
2021/09/29 18:11:08;;;;;;;0.70;0.30;;;;;;;15.19;54.37;100741.41;10338162;28;20471;-63
2021/09/29 18:16:10;;;;;;;1.45;0.52;;;;;;;15.28;52.88;100754.94;10337886;28;20056;-63
2021/09/29 18:21:13;;;;;;;2.08;0.80;;;;;;;15.08;54.34;100754.94;10335327;28;20483;-67
2021/09/29 18:26:18;;;;;;;0.88;0.50;;;;;;;15.16;54.21;100773.88;10339286;28;20559;-63
2021/09/29 18:31:21;;;;;;;1.25;0.63;;;;;;;15.12;56.43;100774.31;10338680;28;20045;-64
2021/09/29 18:36:25;;;;;;;2.05;0.85;;;;;;;14.82;53.71;100782.28;10336179;28;20050;-64
2021/09/29 18:41:29;;;;;;;1.75;0.40;;;;;;;14.62;55.78;100785.91;10338637;28;20076;-63
2021/09/29 18:46:34;;;;;;;1.45;0.63;;;;;;;14.73;55.06;100788.50;10341958;28;20062;-64
2021/09/29 18:51:38;;;;;;;2.10;1.08;;;;;;;14.84;56.76;100788.34;10347723;28;20046;-63
2021/09/29 19:12:12;;;;;;;0.93;0.52;;;;;;;15.07;57.18;100816.75;10347389;28;20065;-63
2021/09/29 19:17:14;;;;;;;2.15;0.98;;;;;;;15.01;57.90;100818.16;10312628;28;20073;-64
2021/09/29 19:22:17;;;;;;;1.15;0.70;;;;;;;14.95;55.58;100829.44;10311644;28;20146;-63
2021/09/29 19:27:18;;;;;;;1.70;1.15;;;;;;;14.90;54.47;100832.53;10341129;28;20511;-63
2021/09/29 19:32:21;;;;;;;2.67;0.68;;;;;;;14.89;56.15;100840.72;10343833;28;20134;-63
2021/09/29 19:37:22;;;;;;;3.33;1.73;;;;;;;14.82;56.61;100837.75;10339013;28;20078;-69
2021/09/29 19:42:24;;;;;;;1.70;1.25;;;;;;;14.72;56.33;100845.72;10342445;28;20053;-63
2021/09/29 20:09:12;;;;;;;3.08;1.63;;;;;;;14.37;58.03;100903.22;10342480;28;20054;-63
2021/09/29 20:14:14;;;;;;;2.60;1.48;;;;;;;14.34;54.82;100906.16;10348926;28;20137;-64
2021/09/29 20:19:16;;;;;;;2.35;0.85;;;;;;;14.25;56.09;100912.31;10342570;28;20112;-63
2021/09/29 20:24:17;;;;;;;1.48;0.93;;;;;;;14.00;54.56;100927.78;10342757;28;20046;-63
2021/09/29 20:29:19;;;;;;;2.08;0.80;;;;;;;13.96;53.71;100923.66;10342531;28;20681;-63
2021/09/29 20:45:18;;;;;;;1.75;0.60;;;;;;;14.24;57.99;100943.59;10335924;28;20056;-64
2021/09/29 20:50:20;;;;;;;0.85;0.43;;;;;;;14.21;56.47;100946.53;10343311;28;20056;-62
2021/09/29 20:55:25;;;;;;;1.52;0.50;;;;;;;14.36;56.12;100952.41;10342787;28;20145;-63
2021/09/29 21:00:29;;;;;;;1.83;0.82;;;;;;;14.37;56.25;100947.91;10339119;28;20403;-63
2021/09/29 21:05:30;;;;;;;1.95;1.10;;;;;;;14.42;58.94;100961.75;10343242;28;20526;-63
2021/09/29 21:10:37;;;;;;;2.60;1.08;;;;;;;14.41;57.61;100960.91;10336529;28;20061;-62
2021/09/29 21:15:59;;;;;;;1.33;1.00;;;;;;;14.43;58.07;100975.00;10336347;28;20515;-62
2021/09/29 21:21:00;;;;;;;1.60;0.82;;;;;;;14.38;57.59;100971.03;10337138;28;20108;-62
2021/09/29 21:26:02;;;;;;;1.42;0.95;;;;;;;14.15;58.30;100981.84;10340620;28;20294;-62
2021/09/29 21:31:04;;;;;;;2.30;1.15;;;;;;;14.13;59.97;100990.00;10335701;28;20049;-62
2021/09/29 21:36:06;;;;;;;3.75;1.08;;;;;;;13.99;58.19;100993.00;10336026;28;20053;-64
2021/09/29 22:32:48;;;;;;;4.05;0.90;;;;;;;12.69;62.79;101050.56;10326275;28;20053;-62
2021/09/29 23:09:28;;;;;;;1.98;0.65;;;;;;;12.09;64.06;101071.94;10348993;28;20127;-62
2021/09/29 23:35:50;;;;;;;1.15;0.40;;;;;;;11.93;64.43;101092.69;10333199;28;20100;-62
2021/09/29 23:41:01;;;;;;;1.42;0.40;;;;;;;11.89;64.39;101097.38;10348470;28;20073;-63
2021/09/29 23:46:03;;;;;;;1.02;0.50;;;;;;;11.80;63.60;101103.34;10342186;28;20050;-62
2021/09/29 23:51:05;;;;;;;2.40;0.55;;;;;;;11.75;65.58;101100.19;10332840;28;20572;-62
2021/09/29 23:56:07;;;;;;;1.67;0.68;;;;;;;11.89;65.07;101104.50;10342140;28;20077;-62
